Time;durP1;ratioP1;P1;durP2;ratioP2;P2;SDS_P1;SDS_P2;PMS_P1;PMS_P2;Temp;Humidity;BMP_temperature;BMP_pressure;BME280_temperature;BME280_humidity;BME280_pressure;Samples;Min_cycle;Max_cycle;Signal;HPM_P1;HPM_P2
2022/02/24 00:01:50;;;;;;;6.93;3.77;;;4.10;1.00;;;;;;5105782;28;20231;-59
2022/02/24 00:04:16;;;;;;;6.13;3.70;;;4.10;1.00;;;;;;5101658;28;20182;-60
2022/02/24 00:06:43;;;;;;;7.50;3.37;;;4.00;1.00;;;;;;5104331;28;20194;-60
2022/02/24 00:09:08;;;;;;;8.63;3.67;;;4.00;1.00;;;;;;5103907;28;20194;-60
2022/02/24 00:11:37;;;;;;;9.00;3.93;;;4.00;1.00;;;;;;5104755;28;20437;-59
2022/02/24 00:14:03;;;;;;;6.13;3.57;;;3.90;1.00;;;;;;5104512;28;20205;-60
2022/02/24 00:16:29;;;;;;;9.53;4.10;;;3.90;1.00;;;;;;5101064;28;20762;-59
2022/02/24 00:18:54;;;;;;;6.57;3.90;;;;;;;;;;5100503;28;20194;-60
2022/02/24 00:21:21;;;;;;;6.57;4.10;;;3.90;1.00;;;;;;5105798;28;20194;-60
2022/02/24 00:23:48;;;;;;;13.37;4.20;;;4.00;1.00;;;;;;5100577;28;20806;-60
2022/02/24 00:26:14;;;;;;;8.97;4.43;;;4.00;1.00;;;;;;5098961;28;20479;-61
2022/02/24 00:28:39;;;;;;;7.23;4.70;;;4.00;1.00;;;;;;5105128;28;20454;-60
2022/02/24 00:31:11;;;;;;;10.17;5.10;;;4.00;1.00;;;;;;5109616;28;20447;-60
2022/02/24 00:33:38;;;;;;;9.20;4.67;;;3.90;1.00;;;;;;5105461;28;20214;-59
2022/02/24 00:36:19;;;;;;;12.40;4.27;;;3.90;1.00;;;;;;5111904;28;20516;-60
2022/02/24 00:38:45;;;;;;;12.53;3.73;;;3.80;1.00;;;;;;5107574;28;20431;-59
2022/02/24 00:41:22;;;;;;;7.87;4.60;;;3.80;1.00;;;;;;5110767;28;20500;-59
2022/02/24 00:43:48;;;;;;;7.07;4.40;;;3.70;1.00;;;;;;5102735;28;20190;-59
2022/02/24 00:46:16;;;;;;;5.90;4.13;;;3.70;1.00;;;;;;5109172;28;21212;-60
2022/02/24 00:48:42;;;;;;;15.43;5.40;;;3.60;1.00;;;;;;5109492;28;20269;-60
2022/02/24 00:51:26;;;;;;;7.63;4.20;;;3.60;1.00;;;;;;5108322;28;20538;-60
2022/02/24 00:53:51;;;;;;;5.00;3.43;;;3.50;1.00;;;;;;5104359;28;20225;-59
2022/02/24 00:56:26;;;;;;;10.50;4.43;;;3.50;1.00;;;;;;5107797;28;20470;-60
2022/02/24 00:58:52;;;;;;;11.30;4.33;;;3.40;1.00;;;;;;5104608;28;20246;-61
2022/02/24 01:01:19;;;;;;;5.53;4.20;;;3.40;1.00;;;;;;5104897;28;20461;-60
2022/02/24 01:03:45;;;;;;;5.27;3.90;;;3.40;1.00;;;;;;5105304;28;20494;-60
2022/02/24 01:06:29;;;;;;;9.23;4.67;;;3.40;1.00;;;;;;5103347;28;20510;-61
2022/02/24 01:08:56;;;;;;;6.87;5.37;;;3.30;1.00;;;;;;5110208;28;20225;-61
2022/02/24 01:11:21;;;;;;;9.90;4.63;;;3.30;1.00;;;;;;5090764;28;20531;-60
2022/02/24 01:13:47;;;;;;;6.53;4.37;;;3.40;1.00;;;;;;5107816;28;21398;-59
2022/02/24 01:16:25;;;;;;;12.00;4.80;;;3.40;1.00;;;;;;5100664;28;20220;-59
2022/02/24 01:18:51;;;;;;;10.20;4.90;;;3.50;1.00;;;;;;5099723;28;20178;-59
2022/02/24 01:21:28;;;;;;;11.00;4.53;;;3.50;1.00;;;;;;5106506;28;20436;-59
2022/02/24 01:23:54;;;;;;;11.70;5.20;;;3.40;1.00;;;;;;5114833;28;20273;-61
2022/02/24 01:26:23;;;;;;;6.83;4.17;;;3.30;1.00;;;;;;5104005;28;20581;-60
2022/02/24 01:28:49;;;;;;;5.80;4.63;;;3.20;1.00;;;;;;5108326;28;20220;-59
2022/02/24 01:31:20;;;;;;;5.73;3.93;;;3.20;1.00;;;;;;5102357;28;20444;-60
2022/02/24 01:33:45;;;;;;;6.47;4.03;;;3.10;1.00;;;;;;5104907;28;20197;-61
2022/02/24 01:36:39;;;;;;;9.80;4.60;;;3.00;1.00;;;;;;5106049;28;20455;-61
2022/02/24 01:39:05;;;;;;;5.47;3.80;;;3.10;1.00;;;;;;5104107;28;20201;-63
2022/02/24 01:41:30;;;;;;;11.20;4.80;;;3.10;1.00;;;;;;5103122;28;20448;-62
2022/02/24 01:44:05;;;;;;;8.63;4.00;;;3.00;1.00;;;;;;5103481;28;20757;-64
2022/02/24 01:46:31;;;;;;;7.83;4.60;;;2.90;1.00;;;;;;5109104;28;20186;-63
2022/02/24 01:48:56;;;;;;;10.30;6.50;;;3.10;1.00;;;;;;5096140;28;20489;-63
2022/02/24 01:51:22;;;;;;;10.77;5.60;;;3.10;1.00;;;;;;5092221;28;20190;-63
2022/02/24 01:53:48;;;;;;;5.90;4.90;;;3.00;1.00;;;;;;5094334;28;20233;-63
2022/02/24 01:56:16;;;;;;;8.93;4.87;;;3.00;1.00;;;;;;5089348;28;20534;-62
2022/02/24 01:58:42;;;;;;;8.13;4.70;;;2.90;1.00;;;;;;5107600;28;20202;-63
2022/02/24 02:01:27;;;;;;;9.63;4.90;;;3.00;1.00;;;;;;5096744;28;20428;-62
2022/02/24 02:03:54;;;;;;;12.83;5.60;;;;;;;;;;5107530;28;20277;-62
2022/02/24 02:06:24;;;;;;;10.47;5.77;;;2.90;1.00;;;;;;5111082;28;20451;-62
2022/02/24 02:08:50;;;;;;;7.60;4.83;;;2.90;1.00;;;;;;5104146;28;20452;-63
2022/02/24 02:11:28;;;;;;;12.33;4.97;;;2.90;1.00;;;;;;5109630;28;20540;-63
2022/02/24 02:13:53;;;;;;;5.57;4.67;;;2.90;1.00;;;;;;5101005;28;20478;-63
2022/02/24 02:16:19;;;;;;;6.77;4.23;;;;;;;;;;5101879;28;21453;-63
2022/02/24 02:18:45;;;;;;;5.50;4.40;;;2.70;1.00;;;;;;5105810;28;20228;-63
2022/02/24 02:21:28;;;;;;;10.50;4.90;;;2.60;1.00;;;;;;5107353;28;20485;-62
2022/02/24 02:23:54;;;;;;;6.03;4.53;;;2.80;1.00;;;;;;5106696;28;20909;-63
2022/02/24 02:26:31;;;;;;;7.40;4.40;;;2.90;1.00;;;;;;5100811;28;20439;-63
2022/02/24 02:29:02;;;;;;;6.03;4.13;;;2.80;1.00;;;;;;5099967;28;20259;-63
2022/02/24 02:31:28;;;;;;;7.60;4.40;;;2.80;1.00;;;;;;5105588;28;20439;-63
2022/02/24 02:34:23;;;;;;;7.90;4.50;;;2.70;1.00;;;;;;5102351;28;20466;-64
2022/02/24 02:36:49;;;;;;;5.33;4.23;;;2.80;1.00;;;;;;5081962;28;20483;-62
2022/02/24 02:39:15;;;;;;;7.83;4.20;;;2.80;1.00;;;;;;5103757;28;20527;-62
2022/02/24 02:41:43;;;;;;;8.00;4.43;;;2.70;1.00;;;;;;5105851;28;20986;-63
2022/02/24 02:44:11;;;;;;;6.43;3.90;;;2.70;1.00;;;;;;5098640;28;20875;-64
2022/02/24 02:46:36;;;;;;;5.47;3.93;;;2.70;1.00;;;;;;5096869;28;20945;-63
2022/02/24 02:49:02;;;;;;;4.90;3.80;;;;;;;;;;5101234;28;20515;-62
2022/02/24 02:51:28;;;;;;;8.17;4.10;;;2.60;1.00;;;;;;5105169;28;20212;-63
2022/02/24 02:53:54;;;;;;;5.10;2.90;;;2.60;1.00;;;;;;5101596;28;20862;-62
2022/02/24 02:56:35;;;;;;;9.87;4.07;;;2.50;1.00;;;;;;5101992;28;20471;-62
2022/02/24 02:59:01;;;;;;;5.73;4.30;;;2.50;1.00;;;;;;5106990;28;20205;-61
2022/02/24 03:01:27;;;;;;;7.70;3.90;;;;;;;;;;5101573;28;20471;-63
2022/02/24 03:03:52;;;;;;;5.30;4.50;;;2.50;1.00;;;;;;5100374;28;20186;-62
2022/02/24 03:06:26;;;;;;;8.00;4.60;;;2.50;1.00;;;;;;5102669;28;21090;-61
2022/02/24 03:08:51;;;;;;;5.00;4.17;;;2.60;1.00;;;;;;5097750;28;20794;-63
2022/02/24 03:11:23;;;;;;;10.77;4.00;;;2.50;1.00;;;;;;5107602;28;20439;-63
2022/02/24 03:13:49;;;;;;;6.80;4.30;;;2.40;1.00;;;;;;5104056;28;20189;-63
2022/02/24 03:16:27;;;;;;;7.93;4.57;;;2.40;1.00;;;;;;5108343;28;20501;-62
2022/02/24 03:18:53;;;;;;;7.33;4.13;;;2.30;1.00;;;;;;5103656;28;20205;-63
2022/02/24 03:21:22;;;;;;;6.87;4.13;;;2.40;1.00;;;;;;5106562;28;20439;-62
2022/02/24 03:23:49;;;;;;;5.53;4.17;;;2.30;1.00;;;;;;5107580;28;20527;-62
2022/02/24 03:26:21;;;;;;;7.13;4.00;;;2.20;1.00;;;;;;5100720;28;20528;-63
2022/02/24 03:28:46;;;;;;;7.60;4.50;;;2.20;1.00;;;;;;5105120;28;20440;-62
2022/02/24 03:31:12;;;;;;;8.63;3.67;;;2.20;1.00;;;;;;5104528;28;20986;-62
2022/02/24 03:33:37;;;;;;;7.90;4.87;;;2.10;1.00;;;;;;5098382;28;20190;-63
2022/02/24 03:36:03;;;;;;;8.03;4.97;;;2.10;1.00;;;;;;5091029;28;20322;-63
2022/02/24 03:38:29;;;;;;;7.07;4.10;;;2.10;1.00;;;;;;5103856;28;20205;-62
2022/02/24 03:40:54;;;;;;;9.83;5.50;;;2.00;1.00;;;;;;5097844;28;20182;-63
2022/02/24 03:43:20;;;;;;;6.50;5.07;;;;;;;;;;5103615;28;20562;-62
2022/02/24 03:45:46;;;;;;;8.10;4.23;;;2.10;1.00;;;;;;5106920;28;20178;-62
2022/02/24 03:48:11;;;;;;;12.73;4.83;;;2.10;1.00;;;;;;5087239;28;20524;-63
2022/02/24 03:50:37;;;;;;;8.63;4.47;;;2.00;1.00;;;;;;5097600;28;20308;-63
2022/02/24 03:53:03;;;;;;;13.10;4.90;;;;;;;;;;5105829;28;20366;-62
2022/02/24 03:55:29;;;;;;;8.43;4.90;;;;;;;;;;5095178;28;20527;-62
2022/02/24 03:57:55;;;;;;;7.83;4.60;;;2.10;1.00;;;;;;5107607;28;20799;-63
2022/02/24 04:00:21;;;;;;;9.90;5.63;;;2.10;1.00;;;;;;5094201;28;20436;-62
2022/02/24 04:02:46;;;;;;;11.07;5.07;;;2.20;1.00;;;;;;5103801;28;20277;-63
2022/02/24 04:05:13;;;;;;;9.73;4.90;;;2.20;1.00;;;;;;5111190;28;20196;-63
2022/02/24 04:07:39;;;;;;;8.40;5.13;;;2.20;1.00;;;;;;5109631;28;20242;-63
2022/02/24 04:10:05;;;;;;;13.03;5.07;;;2.10;1.00;;;;;;5103141;28;20526;-62
2022/02/24 04:12:31;;;;;;;10.00;4.50;;;;;;;;;;5107448;28;20182;-62
2022/02/24 04:14:58;;;;;;;10.53;5.00;;;2.10;1.00;;;;;;5104628;28;20466;-62
2022/02/24 04:17:23;;;;;;;8.70;4.53;;;2.10;1.00;;;;;;5106811;28;20555;-63
2022/02/24 04:19:49;;;;;;;6.90;4.80;;;;;;;;;;5106979;28;21134;-63
2022/02/24 04:22:15;;;;;;;6.17;4.47;;;;;;;;;;5106758;28;20189;-63
2022/02/24 04:24:41;;;;;;;12.43;5.40;;;;;;;;;;5108054;28;20534;-63
2022/02/24 04:27:07;;;;;;;7.40;5.00;;;2.10;1.00;;;;;;5108145;28;20497;-63
2022/02/24 04:29:33;;;;;;;9.77;5.37;;;;;;;;;;5105939;28;20462;-64
2022/02/24 04:31:58;;;;;;;6.43;4.50;;;2.10;1.00;;;;;;5104457;28;20715;-63
2022/02/24 04:34:24;;;;;;;9.90;4.90;;;;;;;;;;5098921;28;20452;-64
2022/02/24 04:36:50;;;;;;;10.97;5.30;;;2.10;1.00;;;;;;5106341;28;20259;-63
2022/02/24 04:39:16;;;;;;;8.70;5.17;;;;;;;;;;5096070;28;20529;-64
2022/02/24 04:41:42;;;;;;;6.40;4.80;;;2.10;1.00;;;;;;5098239;28;20590;-64
2022/02/24 04:44:08;;;;;;;10.77;4.63;;;;;;;;;;5094502;28;20444;-63
2022/02/24 04:46:33;;;;;;;7.83;5.30;;;2.10;1.00;;;;;;5107048;28;20186;-63
2022/02/24 04:48:59;;;;;;;10.40;5.20;;;2.30;1.00;;;;;;5100587;28;20892;-63
2022/02/24 04:51:31;;;;;;;7.87;4.63;;;2.30;1.00;;;;;;5103028;28;20186;-63
2022/02/24 04:53:57;;;;;;;7.60;5.20;;;2.40;1.00;;;;;;5105147;28;21075;-63
2022/02/24 04:56:28;;;;;;;8.07;4.73;;;2.40;1.00;;;;;;5103986;28;20559;-66
2022/02/24 04:58:54;;;;;;;10.20;5.70;;;2.40;1.00;;;;;;5109807;28;20213;-62
2022/02/24 05:01:28;;;;;;;7.37;4.93;;;2.30;1.00;;;;;;5112422;28;20463;-63
2022/02/24 05:03:54;;;;;;;13.53;6.00;;;2.30;1.00;;;;;;5111764;28;20235;-61
2022/02/24 05:06:23;;;;;;;9.53;4.70;;;2.30;1.00;;;;;;5086785;28;20829;-63
2022/02/24 05:08:48;;;;;;;8.80;5.03;;;2.30;1.00;;;;;;5111728;28;20285;-61
2022/02/24 05:11:23;;;;;;;12.70;5.30;;;2.40;1.00;;;;;;5111901;28;20453;-61
2022/02/24 05:13:48;;;;;;;9.27;5.27;;;2.50;1.00;;;;;;5103850;28;20197;-63
2022/02/24 05:16:23;;;;;;;10.93;6.10;;;2.50;1.00;;;;;;5104925;28;20574;-62
2022/02/24 05:18:48;;;;;;;7.60;5.60;;;2.40;1.00;;;;;;5103617;28;20182;-64
2022/02/24 05:21:20;;;;;;;10.43;4.60;;;2.40;1.00;;;;;;5096298;28;20440;-63
2022/02/24 05:23:45;;;;;;;12.30;5.90;;;2.40;1.00;;;;;;5110066;28;20213;-62
2022/02/24 05:26:11;;;;;;;10.30;5.70;;;2.40;1.00;;;;;;5103809;28;20487;-64
2022/02/24 05:28:37;;;;;;;9.50;5.13;;;2.60;1.00;;;;;;5097757;28;20175;-64
2022/02/24 05:31:03;;;;;;;8.73;6.67;;;2.70;1.00;;;;;;5102858;28;20189;-63
2022/02/24 05:33:30;;;;;;;8.50;5.37;;;2.70;1.00;;;;;;5101228;28;20186;-64
2022/02/24 05:35:56;;;;;;;10.77;5.57;;;2.80;1.00;;;;;;5111539;28;20540;-64
2022/02/24 05:38:22;;;;;;;8.47;4.90;;;2.80;1.00;;;;;;5107660;28;20467;-64
2022/02/24 05:40:48;;;;;;;10.60;5.73;;;2.90;1.00;;;;;;5106909;28;20565;-63
2022/02/24 05:43:14;;;;;;;9.00;5.67;;;2.90;1.00;;;;;;5102858;28;20458;-64
2022/02/24 05:45:40;;;;;;;19.37;6.33;;;2.90;1.00;;;;;;5108986;28;20463;-63
2022/02/24 05:48:06;;;;;;;10.80;5.60;;;3.00;1.00;;;;;;5099598;28;20484;-64
2022/02/24 05:50:31;;;;;;;8.83;5.93;;;2.80;1.00;;;;;;5103725;28;20478;-63
2022/02/24 05:53:02;;;;;;;13.00;6.13;;;2.80;1.00;;;;;;5107561;28;20711;-62
2022/02/24 05:55:29;;;;;;;12.77;6.67;;;2.80;1.00;;;;;;5105015;28;20190;-63
2022/02/24 05:57:55;;;;;;;12.10;6.40;;;2.80;1.00;;;;;;5106566;28;21044;-64
2022/02/24 06:00:20;;;;;;;9.83;5.73;;;2.90;1.00;;;;;;5109852;28;20516;-62
2022/02/24 06:02:46;;;;;;;10.93;5.67;;;2.90;1.00;;;;;;5102058;28;20182;-63
2022/02/24 06:05:12;;;;;;;7.90;5.53;;;;;;;;;;5107955;28;20186;-63
2022/02/24 06:07:37;;;;;;;13.90;5.87;;;3.00;1.00;;;;;;5100665;28;20730;-63
2022/02/24 06:10:04;;;;;;;15.90;6.20;;;3.00;1.00;;;;;;5105862;28;20765;-63
2022/02/24 06:12:29;;;;;;;9.67;5.40;;;3.00;1.00;;;;;;5094571;28;20179;-63
2022/02/24 06:14:55;;;;;;;7.47;5.37;;;3.10;1.00;;;;;;5091468;28;20437;-63
2022/02/24 06:17:20;;;;;;;13.23;6.57;;;3.20;1.00;;;;;;5093260;28;20202;-63
2022/02/24 06:19:46;;;;;;;13.10;6.83;;;;;;;;;;5095097;28;20185;-63
2022/02/24 06:22:12;;;;;;;9.97;5.50;;;;;;;;;;5097305;28;20190;-62
2022/02/24 06:24:38;;;;;;;16.13;5.70;;;3.30;1.00;;;;;;5101193;28;20448;-62
2022/02/24 06:27:03;;;;;;;8.67;6.27;;;3.30;1.00;;;;;;5107723;28;20840;-62
2022/02/24 06:29:29;;;;;;;15.63;7.00;;;3.40;1.00;;;;;;5103942;28;20218;-62
2022/02/24 06:31:55;;;;;;;13.30;7.13;;;;;;;;;;5077412;28;20621;-62
2022/02/24 06:34:21;;;;;;;9.90;6.73;;;3.50;1.00;;;;;;5096986;28;20243;-63
2022/02/24 06:36:47;;;;;;;8.40;5.97;;;;;;;;;;5103787;28;20528;-63
2022/02/24 06:39:12;;;;;;;11.20;6.37;;;3.60;1.00;;;;;;5094757;28;20206;-63
2022/02/24 06:41:38;;;;;;;7.97;6.23;;;3.60;1.00;;;;;;5102042;28;20443;-64
2022/02/24 06:44:03;;;;;;;14.40;6.50;;;3.70;1.00;;;;;;5101684;28;20642;-64
2022/02/24 06:46:29;;;;;;;12.83;6.20;;;3.70;1.00;;;;;;5098205;28;20190;-64
2022/02/24 06:48:54;;;;;;;11.80;6.20;;;3.80;1.00;;;;;;5096531;28;20605;-64
2022/02/24 06:51:23;;;;;;;12.07;7.20;;;3.80;1.00;;;;;;5104465;28;20181;-65
2022/02/24 06:53:49;;;;;;;13.93;5.93;;;;;;;;;;5096562;28;20226;-64
2022/02/24 06:56:27;;;;;;;7.27;5.50;;;3.90;1.00;;;;;;5092944;28;20460;-65
2022/02/24 06:58:52;;;;;;;11.63;6.67;;;3.90;1.00;;;;;;5074374;28;20456;-64
2022/02/24 07:01:21;;;;;;;9.30;5.57;;;4.00;1.00;;;;;;5094351;28;20445;-64
2022/02/24 07:03:46;;;;;;;13.37;6.90;;;4.00;1.00;;;;;;5097646;28;20239;-63
2022/02/24 07:06:19;;;;;;;9.90;5.90;;;4.10;1.00;;;;;;5110732;28;20476;-65
2022/02/24 07:08:44;;;;;;;12.80;6.33;;;4.10;1.00;;;;;;5095822;28;20247;-64
2022/02/24 07:11:23;;;;;;;9.73;6.03;;;4.30;1.00;;;;;;5105900;28;21093;-64
2022/02/24 07:13:49;;;;;;;13.83;5.50;;;;;;;;;;5106366;28;20664;-65
2022/02/24 07:16:23;;;;;;;12.73;6.10;;;4.50;1.00;;;;;;5110648;28;20463;-64
2022/02/24 07:18:49;;;;;;;9.23;5.23;;;4.50;1.00;;;;;;5092426;28;20431;-65
2022/02/24 07:21:27;;;;;;;9.80;6.10;;;4.60;1.00;;;;;;5104452;28;20450;-64
2022/02/24 07:23:53;;;;;;;10.97;6.13;;;4.60;1.00;;;;;;5096052;28;20214;-64
2022/02/24 07:26:20;;;;;;;12.33;6.13;;;4.80;1.00;;;;;;5098153;28;20467;-64
2022/02/24 07:28:46;;;;;;;9.13;4.97;;;;;;;;;;5103355;28;20186;-63
2022/02/24 07:31:29;;;;;;;7.17;5.70;;;5.00;1.00;;;;;;5074660;28;20443;-64
2022/02/24 07:33:55;;;;;;;10.43;5.70;;;;;;;;;;5107028;28;20447;-63
2022/02/24 07:36:24;;;;;;;7.50;5.80;;;5.50;1.00;;;;;;5104401;28;20801;-63
2022/02/24 07:38:50;;;;;;;5.63;4.37;;;;;;;;;;5099548;28;20484;-64
2022/02/24 07:41:16;;;;;;;6.90;4.77;;;6.10;1.00;;;;;;5100464;28;20895;-64
2022/02/24 07:43:42;;;;;;;9.50;5.33;;;;;;;;;;5114734;28;20502;-64
2022/02/24 07:46:08;;;;;;;10.50;4.33;;;;;;;;;;5112959;28;20218;-64
2022/02/24 07:48:33;;;;;;;8.77;4.80;;;6.90;1.00;;;;;;5096407;28;20467;-63
2022/02/24 07:50:59;;;;;;;8.90;4.80;;;7.20;1.00;;;;;;5094525;28;20429;-64
2022/02/24 07:53:25;;;;;;;15.03;5.33;;;7.50;1.00;;;;;;5078143;28;20213;-64
2022/02/24 07:55:50;;;;;;;9.03;5.00;;;7.70;1.00;;;;;;5095859;28;20782;-63
2022/02/24 07:58:16;;;;;;;9.67;5.27;;;7.80;1.00;;;;;;5103687;28;20511;-61
2022/02/24 08:00:42;;;;;;;10.17;4.93;;;7.80;1.00;;;;;;5105546;28;20208;-62
2022/02/24 08:03:07;;;;;;;11.43;4.30;;;7.90;1.00;;;;;;5091423;28;20181;-62
2022/02/24 08:05:33;;;;;;;12.03;4.13;;;8.50;1.00;;;;;;5096473;28;20505;-62
2022/02/24 08:07:59;;;;;;;8.90;4.10;;;8.50;1.00;;;;;;5095744;28;20202;-61
2022/02/24 08:10:24;;;;;;;11.23;4.40;;;8.90;1.00;;;;;;5100119;28;20201;-60
2022/02/24 08:12:50;;;;;;;8.07;4.07;;;9.30;1.00;;;;;;5097118;28;20639;-63
2022/02/24 08:15:23;;;;;;;11.53;4.33;;;9.40;1.00;;;;;;5094706;28;20186;-61
2022/02/24 08:17:50;;;;;;;10.13;4.50;;;9.40;1.00;;;;;;5107992;28;20678;-61
2022/02/24 08:20:16;;;;;;;6.80;4.33;;;9.30;1.00;;;;;;5075783;28;20440;-62
2022/02/24 08:22:44;;;;;;;5.33;3.73;;;9.30;1.00;;;;;;5094250;28;20908;-62
2022/02/24 08:25:12;;;;;;;8.57;4.10;;;9.30;1.00;;;;;;5110274;28;20535;-62
2022/02/24 08:27:39;;;;;;;5.40;3.60;;;9.40;1.00;;;;;;5096135;28;20437;-61
2022/02/24 08:30:10;;;;;;;7.03;4.40;;;9.30;1.00;;;;;;5097460;28;20436;-61
2022/02/24 08:32:37;;;;;;;8.93;4.07;;;9.30;1.00;;;;;;5096550;28;20519;-61
2022/02/24 08:35:04;;;;;;;5.63;3.20;;;9.40;1.00;;;;;;5093533;28;20432;-61
2022/02/24 08:37:30;;;;;;;6.37;2.97;;;;;;;;;;5094031;28;20456;-62
2022/02/24 08:39:56;;;;;;;4.53;3.57;;;9.40;1.00;;;;;;5093501;28;20535;-62
2022/02/24 08:42:27;;;;;;;7.33;3.40;;;9.40;1.00;;;;;;5093539;28;20444;-62
2022/02/24 08:44:53;;;;;;;8.63;3.70;;;9.50;1.00;;;;;;5107045;28;20196;-62
2022/02/24 08:47:19;;;;;;;4.80;3.40;;;9.50;1.00;;;;;;5113766;28;20440;-61
2022/02/24 08:49:46;;;;;;;6.33;4.50;;;9.50;1.00;;;;;;5102085;28;20467;-61
2022/02/24 08:52:12;;;;;;;6.70;3.60;;;9.70;1.00;;;;;;5112784;28;20801;-62
2022/02/24 08:54:38;;;;;;;5.40;3.50;;;9.80;1.00;;;;;;5110508;28;20444;-61
2022/02/24 08:57:04;;;;;;;3.90;2.57;;;10.00;1.00;;;;;;5113485;28;20201;-62
2022/02/24 08:59:29;;;;;;;10.10;3.77;;;10.20;1.00;;;;;;5113178;28;20432;-62
2022/02/24 09:01:55;;;;;;;10.10;3.50;;;;;;;;;;5095274;28;20185;-62
2022/02/24 09:04:21;;;;;;;8.50;3.37;;;10.70;1.00;;;;;;5113625;28;20910;-63
2022/02/24 09:06:47;;;;;;;4.57;2.83;;;10.90;1.00;;;;;;5095014;28;20469;-62
2022/02/24 09:09:13;;;;;;;6.13;3.10;;;11.10;1.00;;;;;;5112925;28;20217;-61
2022/02/24 09:11:39;;;;;;;7.77;3.37;;;11.30;1.00;;;;;;5109352;28;20418;-62
2022/02/24 09:14:05;;;;;;;5.23;3.60;;;11.50;1.00;;;;;;5103245;28;20594;-62
2022/02/24 09:16:31;;;;;;;3.40;3.10;;;11.50;1.00;;;;;;5092990;28;20468;-62
2022/02/24 09:18:57;;;;;;;6.03;3.20;;;11.80;1.00;;;;;;5074553;28;20441;-63
2022/02/24 09:21:23;;;;;;;7.37;6.30;;;12.00;1.00;;;;;;5109814;28;20492;-62
2022/02/24 09:23:49;;;;;;;5.97;3.00;;;12.30;1.00;;;;;;5113234;28;20444;-61
2022/02/24 09:26:18;;;;;;;8.83;3.40;;;12.20;1.00;;;;;;5101523;28;20197;-64
2022/02/24 09:28:44;;;;;;;7.20;3.90;;;12.20;1.00;;;;;;5103828;28;20876;-61
2022/02/24 09:31:20;;;;;;;5.20;3.20;;;12.10;1.00;;;;;;5095572;28;20490;-63
2022/02/24 09:33:46;;;;;;;4.00;2.93;;;12.20;1.00;;;;;;5086944;28;20406;-63
2022/02/24 09:36:24;;;;;;;5.43;2.40;;;12.50;1.00;;;;;;5103303;28;20986;-63
2022/02/24 09:38:50;;;;;;;2.70;2.00;;;12.50;1.00;;;;;;5106181;28;20887;-62
2022/02/24 09:41:31;;;;;;;2.23;1.70;;;12.60;1.00;;;;;;5074586;28;20450;-61
2022/02/24 09:43:56;;;;;;;1.70;1.30;;;12.80;1.00;;;;;;5074437;28;20407;-62
2022/02/24 09:46:22;;;;;;;1.67;1.10;;;12.70;1.00;;;;;;5092321;28;20414;-61
2022/02/24 09:48:48;;;;;;;2.27;1.20;;;;;;;;;;5103802;28;20187;-62
2022/02/24 09:51:20;;;;;;;3.10;1.40;;;12.80;1.00;;;;;;5093297;28;20186;-62
2022/02/24 09:53:48;;;;;;;3.47;0.97;;;12.60;1.00;;;;;;5103625;28;20491;-63
2022/02/24 09:56:21;;;;;;;1.73;1.30;;;12.60;1.00;;;;;;5110983;28;20488;-63
2022/02/24 09:58:49;;;;;;;1.10;1.00;;;12.60;1.00;;;;;;5112361;28;20428;-63
2022/02/24 10:01:21;;;;;;;4.73;1.27;;;12.70;1.00;;;;;;5082387;28;21016;-63
2022/02/24 10:03:53;;;;;;;2.80;1.57;;;12.80;1.00;;;;;;5097520;28;20444;-64
2022/02/24 10:06:32;;;;;;;4.97;1.27;;;12.90;1.00;;;;;;5103009;28;20431;-64
2022/02/24 10:08:58;;;;;;;3.73;1.23;;;;;;;;;;5106865;28;20440;-63
2022/02/24 10:11:27;;;;;;;3.47;1.13;;;13.10;1.00;;;;;;5101033;28;20465;-62
2022/02/24 10:14:09;;;;;;;2.97;1.00;;;13.10;1.00;;;;;;5102873;28;20440;-63
2022/02/24 10:16:56;;;;;;;5.63;1.40;;;13.40;1.00;;;;;;5099618;28;20460;-63
2022/02/24 10:19:35;;;;;;;5.53;1.47;;;13.60;1.00;;;;;;5102170;28;20407;-62
2022/02/24 10:22:30;;;;;;;3.33;1.00;;;13.70;1.00;;;;;;5092197;28;20432;-63
2022/02/24 10:25:06;;;;;;;2.87;1.10;;;13.70;1.00;;;;;;5102980;28;20418;-62
2022/02/24 10:27:34;;;;;;;2.30;1.10;;;13.70;1.00;;;;;;5106634;28;20423;-63
2022/02/24 10:30:19;;;;;;;2.03;1.17;;;13.70;1.00;;;;;;5100112;28;20438;-63
2022/02/24 10:32:46;;;;;;;1.30;1.10;;;13.60;1.00;;;;;;5097154;28;20793;-63
2022/02/24 10:35:27;;;;;;;4.30;2.03;;;13.60;1.00;;;;;;5110999;28;20438;-62
2022/02/24 10:37:57;;;;;;;1.40;1.20;;;13.40;1.00;;;;;;5104975;28;20464;-62
2022/02/24 10:40:23;;;;;;;1.90;1.27;;;13.50;1.00;;;;;;5092757;28;20430;-62
2022/02/24 10:42:49;;;;;;;3.53;1.60;;;13.40;1.00;;;;;;5109509;28;20929;-63
2022/02/24 10:45:17;;;;;;;3.20;1.40;;;13.40;1.00;;;;;;5110429;28;20411;-62
2022/02/24 10:47:58;;;;;;;2.77;1.67;;;13.40;1.00;;;;;;5095342;28;20189;-63
2022/02/24 10:50:51;;;;;;;2.30;1.30;;;13.40;1.00;;;;;;5103391;28;20918;-63
2022/02/24 10:53:22;;;;;;;2.03;1.00;;;13.30;1.00;;;;;;5096165;28;20531;-62
2022/02/24 10:55:59;;;;;;;2.27;0.90;;;13.30;1.00;;;;;;5094413;28;20433;-61
2022/02/24 10:58:26;;;;;;;2.30;1.70;;;13.20;1.00;;;;;;5107472;28;20439;-63
2022/02/24 11:01:18;;;;;;;4.73;1.37;;;13.30;1.00;;;;;;5099141;28;20407;-63
2022/02/24 11:03:46;;;;;;;4.97;1.70;;;13.40;1.00;;;;;;5097818;28;20437;-63
2022/02/24 11:06:26;;;;;;;4.50;1.63;;;13.20;1.00;;;;;;5108920;28;21018;-63
2022/02/24 11:08:53;;;;;;;1.83;1.10;;;13.40;1.00;;;;;;5110071;28;20940;-61
2022/02/24 11:11:28;;;;;;;5.90;1.60;;;13.30;1.00;;;;;;5095897;28;20535;-61
2022/02/24 11:13:55;;;;;;;3.00;1.10;;;13.20;1.00;;;;;;5107706;28;20402;-62
2022/02/24 11:16:22;;;;;;;1.80;1.30;;;13.30;1.00;;;;;;5095346;28;20948;-63
2022/02/24 11:18:48;;;;;;;1.63;1.10;;;13.40;1.00;;;;;;5090625;28;20460;-62
2022/02/24 11:21:14;;;;;;;1.90;1.17;;;13.40;1.00;;;;;;5109620;28;20447;-63
2022/02/24 11:23:42;;;;;;;2.70;1.27;;;13.40;1.00;;;;;;5093619;28;20451;-63
2022/02/24 11:26:33;;;;;;;1.67;1.30;;;13.50;1.00;;;;;;5095305;28;20407;-62
2022/02/24 11:29:24;;;;;;;5.90;1.47;;;13.70;1.00;;;;;;5097398;28;20402;-62
2022/02/24 11:31:58;;;;;;;4.13;1.27;;;13.90;1.00;;;;;;5094418;28;20562;-63
2022/02/24 11:34:57;;;;;;;3.90;1.40;;;14.10;1.00;;;;;;5108002;28;20442;-63
2022/02/24 11:37:33;;;;;;;2.30;1.27;;;14.20;1.00;;;;;;5095589;28;20461;-62
2022/02/24 11:40:05;;;;;;;3.17;1.10;;;14.10;1.00;;;;;;5094130;28;20437;-63
2022/02/24 11:42:32;;;;;;;2.47;1.27;;;14.00;1.00;;;;;;5100000;28;20491;-62
2022/02/24 11:44:58;;;;;;;2.80;1.40;;;14.00;1.00;;;;;;5106953;28;20837;-61
2022/02/24 11:47:24;;;;;;;4.33;1.83;;;14.00;1.00;;;;;;5094826;28;20539;-63
2022/02/24 11:49:53;;;;;;;2.47;1.30;;;13.80;1.00;;;;;;5103254;28;20538;-62
2022/02/24 11:52:29;;;;;;;3.63;1.27;;;13.80;1.00;;;;;;5109787;28;21181;-62
2022/02/24 11:54:57;;;;;;;2.73;1.30;;;13.60;1.00;;;;;;5106225;28;20443;-63
2022/02/24 11:57:29;;;;;;;3.10;1.20;;;13.60;1.00;;;;;;5105357;28;20456;-64
2022/02/24 11:59:57;;;;;;;2.13;1.20;;;13.40;1.00;;;;;;5091430;28;20418;-63
2022/02/24 12:02:43;;;;;;;2.53;1.30;;;13.10;1.00;;;;;;5104565;28;21004;-62
2022/02/24 12:05:21;;;;;;;1.87;1.27;;;12.90;1.00;;;;;;5091841;28;20439;-61
2022/02/24 12:08:03;;;;;;;1.90;1.30;;;12.90;1.00;;;;;;5107192;28;20439;-62
2022/02/24 12:10:47;;;;;;;2.73;1.50;;;13.00;1.00;;;;;;5109477;28;20447;-63
2022/02/24 12:13:30;;;;;;;3.50;1.50;;;13.10;1.00;;;;;;5092301;28;20403;-63
2022/02/24 12:16:19;;;;;;;4.93;1.37;;;13.30;1.00;;;;;;5101888;28;20518;-62
2022/02/24 12:18:45;;;;;;;4.00;1.30;;;13.20;1.00;;;;;;5096188;28;20989;-63
2022/02/24 12:21:31;;;;;;;4.13;1.30;;;13.20;1.00;;;;;;5092182;28;20553;-63
2022/02/24 12:23:59;;;;;;;5.07;1.17;;;13.20;1.00;;;;;;5104503;28;20446;-62
2022/02/24 12:26:47;;;;;;;3.80;1.80;;;13.30;1.00;;;;;;5094483;28;20772;-63
2022/02/24 12:29:29;;;;;;;2.57;1.20;;;13.20;1.00;;;;;;5096456;28;20933;-62
2022/02/24 12:31:58;;;;;;;3.37;1.70;;;13.40;1.00;;;;;;5112273;28;20431;-63
2022/02/24 12:34:26;;;;;;;3.97;1.67;;;13.50;1.00;;;;;;5106730;28;20762;-63
2022/02/24 12:36:52;;;;;;;2.17;1.13;;;13.60;1.00;;;;;;5112669;28;20464;-62
2022/02/24 12:39:18;;;;;;;6.20;1.60;;;13.50;1.00;;;;;;5109867;28;20493;-62
2022/02/24 12:41:44;;;;;;;1.73;0.90;;;13.40;1.00;;;;;;5105063;28;20476;-62
2022/02/24 12:44:23;;;;;;;3.70;1.57;;;13.30;1.00;;;;;;5096046;28;20436;-62
2022/02/24 12:46:50;;;;;;;3.37;1.40;;;13.30;1.00;;;;;;5097512;28;20189;-61
2022/02/24 12:49:15;;;;;;;3.03;1.07;;;13.40;1.00;;;;;;5102603;28;20414;-63
2022/02/24 12:51:41;;;;;;;4.53;1.60;;;13.30;1.00;;;;;;5099781;28;20440;-63
2022/02/24 12:54:15;;;;;;;1.37;1.27;;;13.30;1.00;;;;;;5103681;28;20249;-63
2022/02/24 12:56:41;;;;;;;2.30;1.27;;;13.30;1.00;;;;;;5101311;28;20467;-63
2022/02/24 12:59:11;;;;;;;5.27;1.93;;;13.30;1.00;;;;;;5093970;28;20441;-63
2022/02/24 13:01:37;;;;;;;2.37;1.10;;;;;;;;;;5113287;28;20440;-63
2022/02/24 13:04:15;;;;;;;3.00;1.20;;;13.40;1.00;;;;;;5103694;28;20771;-62
2022/02/24 13:06:44;;;;;;;2.13;1.30;;;13.40;1.00;;;;;;5110053;28;20415;-63
2022/02/24 13:12:06;;;;;;;2.27;1.40;;;13.40;1.00;;;;;;5108800;28;20949;-63
2022/02/24 13:14:33;;;;;;;1.67;1.20;;;13.50;1.00;;;;;;5103513;28;20932;-62
2022/02/24 13:16:59;;;;;;;2.17;1.40;;;13.40;1.00;;;;;;5100852;28;20495;-63
2022/02/24 13:19:26;;;;;;;2.87;1.50;;;13.50;1.00;;;;;;5095755;28;20419;-63
2022/02/24 13:21:56;;;;;;;3.30;1.50;;;13.40;1.00;;;;;;5093010;28;20623;-63
2022/02/24 13:24:25;;;;;;;1.70;1.27;;;13.50;1.00;;;;;;5093036;28;20438;-62